الصفحة الرئيسية
METAR-TAF:

METAR-TAF

مطار :

مطار نيكولا تسلا في بلغراد

بلغراد, صربيا

دائرة عرض: 44-49N, خط طول: 020-17E, ارتفاع: 96 متر

مراقبة الطقس الحالي

تاريخ ووقت الإصدار 29 دقيقة قبل الساعة 12:00UTC
ريح 6 عقدة من الغرب, الاتجاه يتراوح بين الجنوب/الجنوب الغربي و الشمال الغربي
درجة الحرارة 27°درجة مئوية
الرطوبة 58%
ضغط 1015 hPa
الرؤية 10 كم أو أكثر
غيوم قليلة على ارتفاع 3700 قدم

METAR: LYBE 151200Z 27006KT 200V320 9999 FEW037 27/18 Q1015 NOSIG

زمن: 14:29 (12:29 UTC)

توقعات

تاريخ ووقت الإصدار 1ساعة و 29 دقيقة قبل الساعة 11:00UTC
التوقعات صالحة من15 الساعة 12 UTC إلى 16 الساعة 12 UTC
ريح 6 عقدة من الغرب
الرؤية 10 كم أو أكثر
غيوم متفرقة على ارتفاع 3000 قدم
نظرية الاحتمالات 30% :
مؤقت
من 16 الساعة 03 UTC إلى 16 الساعة 06 UTC
الرؤية: 3000 متر
غشاء

TAF: LYBE 151100Z 1512/1612 27006KT 9999 SCT030 TX28/1513Z TN18/1603Z PROB30 TEMPO 1603/1606 3000 BR

أرصاد الطقس والتوقعات من أكثر من 4000 مطار (تقارير الطقس للمطار METAR والتنبؤ بالطقس بالمطارTAF).

المحطات المتاحة هي النقط الصفراء والحمراء على الخريطة.

حرك المؤشر فوق النقطة لمعرفة اسم المحطة.

ثم انقر لمعرفة أرصاد وتوقعات الطقس.

لتغيير الخارطة: اضغط على الأزرار الخضراء مع رمز الصليب الأسود للتكبير. على الزر الأخضر مع شرطة للتصغير، أو على الأسهم الخضراء للخرائط المجاورة.


METAR-TAF: